Time;durP1;ratioP1;P1;durP2;ratioP2;P2;SDS_P1;SDS_P2;PMS_P1;PMS_P2;Temp;Humidity;BMP_temperature;BMP_pressure;BME280_temperature;BME280_humidity;BME280_pressure;Samples;Min_cycle;Max_cycle;Signal;HPM_P1;HPM_P2
2023/07/27 00:01:12;;;;;;;0.20;0.10;;;;;;;17.84;100.00;99781.44;5013731;28;20037;-49
2023/07/27 00:03:38;;;;;;;0.38;0.25;;;;;;;17.88;100.00;99769.13;5019548;28;20040;-52
2023/07/27 00:06:03;;;;;;;0.00;0.00;;;;;;;17.85;100.00;99772.31;5017843;28;20579;-50
2023/07/27 00:08:29;;;;;;;0.10;0.00;;;;;;;17.89;100.00;99768.06;5013329;28;20029;-46
2023/07/27 00:10:55;;;;;;;0.00;0.00;;;;;;;17.78;100.00;99763.63;5019240;28;20410;-48
2023/07/27 00:13:20;;;;;;;0.10;0.08;;;;;;;17.68;100.00;99761.69;5019001;28;20038;-51
2023/07/27 00:15:45;;;;;;;0.00;0.00;;;;;;;17.73;100.00;99767.09;5019063;28;20133;-50
2023/07/27 00:18:11;;;;;;;0.30;0.00;;;;;;;17.67;100.00;99765.44;5020540;28;20036;-50
2023/07/27 00:20:36;;;;;;;1.73;0.00;;;;;;;17.78;100.00;99769.00;5017853;28;20030;-49
2023/07/27 00:23:01;;;;;;;0.30;0.00;;;;;;;17.85;100.00;99762.38;5021093;28;20083;-51
2023/07/27 00:25:27;;;;;;;0.20;0.00;;;;;;;17.83;100.00;99752.97;5022019;28;20498;-51
2023/07/27 00:27:52;;;;;;;0.05;0.05;;;;;;;17.81;100.00;99752.44;5020354;28;20069;-49
2023/07/27 00:30:17;;;;;;;0.50;0.50;;;;;;;17.82;100.00;99754.06;5017877;28;20104;-54
2023/07/27 00:32:43;;;;;;;0.10;0.03;;;;;;;17.79;100.00;99757.22;5021037;28;20033;-52
2023/07/27 00:35:08;;;;;;;0.38;0.00;;;;;;;17.83;100.00;99753.78;5018567;28;20791;-50
2023/07/27 00:37:33;;;;;;;0.08;0.00;;;;;;;17.82;100.00;99751.38;5021404;28;20053;-54
2023/07/27 00:39:59;;;;;;;0.10;0.10;;;;;;;17.83;100.00;99742.25;5018675;28;20045;-49
2023/07/27 00:42:24;;;;;;;3.88;0.30;;;;;;;17.86;100.00;99737.22;5021765;28;20149;-48
2023/07/27 00:44:49;;;;;;;0.65;0.00;;;;;;;17.91;100.00;99728.38;5018296;28;20044;-52
2023/07/27 00:47:15;;;;;;;0.00;0.00;;;;;;;17.90;100.00;99729.44;5017178;28;20038;-52
2023/07/27 00:49:40;;;;;;;0.20;0.00;;;;;;;17.85;100.00;99732.09;5024056;28;20037;-53
2023/07/27 00:52:07;;;;;;;1.30;0.00;;;;;;;17.90;100.00;99718.72;5020172;28;20021;-52
2023/07/27 00:54:34;;;;;;;0.10;0.00;;;;;;;17.91;100.00;99716.84;5017119;28;20557;-47
2023/07/27 00:57:00;;;;;;;0.00;0.00;;;;;;;17.90;100.00;99715.25;5021070;28;20037;-53
2023/07/27 00:59:25;;;;;;;0.00;0.00;;;;;;;17.91;100.00;99709.59;5022361;28;20140;-48
2023/07/27 01:01:51;;;;;;;0.10;0.10;;;;;;;17.98;100.00;99717.44;5022113;28;20582;-48
2023/07/27 01:04:16;;;;;;;0.13;0.00;;;;;;;17.99;100.00;99706.47;5021539;28;20036;-50
2023/07/27 01:06:42;;;;;;;0.00;0.00;;;;;;;18.00;100.00;99701.91;5016950;28;20080;-49
2023/07/27 01:09:07;;;;;;;0.00;0.00;;;;;;;18.00;100.00;99713.44;5016999;28;20419;-52
2023/07/27 01:11:50;;;;;;;0.00;0.00;;;;;;;17.92;100.00;99705.88;5022773;28;20452;-52
2023/07/27 01:14:33;;;;;;;1.35;0.00;;;;;;;17.94;100.00;99698.38;5015918;28;20060;-52
2023/07/27 01:17:04;;;;;;;0.13;0.00;;;;;;;17.96;100.00;99696.22;5019060;28;20037;-51
2023/07/27 01:19:47;;;;;;;0.00;0.00;;;;;;;18.05;100.00;99694.69;5019749;28;20045;-53
2023/07/27 01:22:31;;;;;;;0.10;0.00;;;;;;;18.08;100.00;99704.09;5018780;28;20348;-51
2023/07/27 01:25:19;;;;;;;1.48;0.00;;;;;;;18.06;100.00;99685.56;5035077;28;20099;-51
2023/07/27 01:28:12;;;;;;;1.27;0.00;;;;;;;18.08;100.00;99686.13;5016557;28;20037;-56
2023/07/27 01:31:15;;;;;;;0.20;0.00;;;;;;;18.04;100.00;99686.88;5012666;28;20162;-47
2023/07/27 01:33:45;;;;;;;0.73;0.10;;;;;;;18.00;100.00;99683.13;5015394;28;20120;-54
2023/07/27 01:36:19;;;;;;;1.27;0.00;;;;;;;18.07;100.00;99687.19;5019417;28;20102;-52
2023/07/27 01:38:47;;;;;;;0.00;0.00;;;;;;;18.02;100.00;99673.75;5017367;28;20092;-50
2023/07/27 01:41:15;;;;;;;0.00;0.00;;;;;;;17.97;100.00;99676.41;5011909;28;20164;-52
2023/07/27 01:43:41;;;;;;;1.90;0.10;;;;;;;17.91;100.00;99669.38;5018682;28;20041;-51
2023/07/27 01:46:09;;;;;;;0.03;0.00;;;;;;;17.98;100.00;99666.47;5018359;28;20037;-47
2023/07/27 01:48:37;;;;;;;0.10;0.00;;;;;;;17.81;100.00;99664.78;5016661;28;20029;-51
2023/07/27 01:51:03;;;;;;;0.38;0.00;;;;;;;17.97;100.00;99671.03;5018505;28;20049;-49
2023/07/27 01:53:30;;;;;;;0.10;0.10;;;;;;;18.02;100.00;99654.97;5022251;28;20049;-47
2023/07/27 01:55:56;;;;;;;0.15;0.00;;;;;;;18.05;100.00;99651.78;5018961;28;20486;-51
2023/07/27 01:58:24;;;;;;;0.00;0.00;;;;;;;18.05;100.00;99651.78;5021567;28;20041;-49
2023/07/27 02:00:49;;;;;;;0.70;0.10;;;;;;;18.07;100.00;99649.63;5013428;28;20523;-54
2023/07/27 02:03:15;;;;;;;0.00;0.00;;;;;;;18.02;100.00;99643.44;5020154;28;20120;-56
2023/07/27 02:05:41;;;;;;;0.20;0.00;;;;;;;17.99;100.00;99638.56;5014982;28;20116;-50
2023/07/27 02:08:06;;;;;;;0.00;0.00;;;;;;;18.05;100.00;99624.16;5013561;28;20116;-50
2023/07/27 02:10:33;;;;;;;0.17;0.00;;;;;;;18.12;100.00;99632.75;5020981;28;20029;-53
2023/07/27 02:13:16;;;;;;;0.63;0.10;;;;;;;18.01;100.00;99631.88;5018226;28;20036;-49
2023/07/27 02:15:51;;;;;;;0.08;0.00;;;;;;;18.01;100.00;99626.53;5011280;28;20033;-48
2023/07/27 02:18:19;;;;;;;0.10;0.00;;;;;;;18.02;100.00;99627.34;5019310;28;20037;-51
2023/07/27 02:20:46;;;;;;;0.47;0.00;;;;;;;18.03;100.00;99623.59;5015661;28;20033;-50
2023/07/27 02:23:13;;;;;;;1.98;0.00;;;;;;;18.06;100.00;99623.06;5019485;28;20063;-47
2023/07/27 02:25:39;;;;;;;0.00;0.00;;;;;;;18.07;100.00;99621.97;5019912;28;20120;-51
2023/07/27 02:28:04;;;;;;;0.10;0.00;;;;;;;18.07;100.00;99620.13;5016200;28;20109;-52
2023/07/27 02:30:30;;;;;;;0.00;0.00;;;;;;;18.10;100.00;99618.81;5019984;28;20103;-52
2023/07/27 02:32:55;;;;;;;0.00;0.00;;;;;;;18.09;100.00;99620.66;5011546;28;20441;-55
2023/07/27 02:35:21;;;;;;;0.22;0.20;;;;;;;18.03;100.00;99620.91;5017247;28;20479;-49
2023/07/27 02:37:46;;;;;;;0.10;0.00;;;;;;;18.11;100.00;99619.59;5019170;28;20034;-46
2023/07/27 02:40:11;;;;;;;0.15;0.00;;;;;;;18.15;100.00;99615.31;5018426;28;20135;-53
2023/07/27 02:42:37;;;;;;;0.08;0.00;;;;;;;18.18;100.00;99606.75;5017308;28;20056;-47
2023/07/27 02:45:02;;;;;;;0.00;0.00;;;;;;;18.18;100.00;99604.09;5017204;28;20155;-50
2023/07/27 02:47:28;;;;;;;4.25;0.20;;;;;;;18.18;100.00;99607.56;5017915;28;20339;-52
2023/07/27 02:49:53;;;;;;;0.05;0.05;;;;;;;18.19;100.00;99609.16;5025280;28;20521;-48
2023/07/27 02:52:18;;;;;;;0.80;0.08;;;;;;;18.21;100.00;99606.25;5024000;28;20095;-48
2023/07/27 02:54:43;;;;;;;0.00;0.00;;;;;;;18.18;100.00;99604.88;5040795;28;20039;-49
2023/07/27 02:57:09;;;;;;;0.15;0.10;;;;;;;18.24;100.00;99608.38;5023422;28;20088;-52
2023/07/27 02:59:34;;;;;;;0.22;0.05;;;;;;;18.31;100.00;99603.59;5024426;28;20771;-47
2023/07/27 03:01:59;;;;;;;0.03;0.03;;;;;;;18.28;100.00;99593.38;5017488;28;20529;-51
2023/07/27 03:04:25;;;;;;;0.22;0.08;;;;;;;18.30;100.00;99591.22;5023875;28;20374;-59
2023/07/27 03:06:50;;;;;;;0.10;0.03;;;;;;;18.35;100.00;99582.38;5021664;28;20036;-51
2023/07/27 03:09:16;;;;;;;1.85;0.00;;;;;;;18.34;100.00;99575.44;5017479;28;20036;-46
2023/07/27 03:11:41;;;;;;;2.53;0.60;;;;;;;18.37;100.00;99591.78;5023922;28;20029;-49
2023/07/27 03:14:06;;;;;;;0.93;0.88;;;;;;;18.16;100.00;99587.44;5021410;28;20269;-51
2023/07/27 03:16:32;;;;;;;0.55;0.15;;;;;;;18.23;100.00;99588.81;5022885;28;20063;-47
2023/07/27 03:18:57;;;;;;;0.40;0.00;;;;;;;18.31;100.00;99582.13;5020412;28;20033;-50
2023/07/27 03:21:23;;;;;;;0.10;0.10;;;;;;;18.31;100.00;99577.56;5024159;28;20033;-52
2023/07/27 03:23:49;;;;;;;5.75;0.10;;;;;;;18.33;100.00;99585.34;5015695;28;20467;-50
2023/07/27 03:26:14;;;;;;;0.65;0.20;;;;;;;18.34;100.00;99584.28;5015547;28;20052;-48
2023/07/27 03:28:40;;;;;;;1.05;0.10;;;;;;;18.21;100.00;99599.00;5024576;28;20033;-51
2023/07/27 03:31:38;;;;;;;2.97;0.20;;;;;;;18.20;100.00;99586.66;5022150;28;20858;-49
2023/07/27 03:34:03;;;;;;;0.95;0.10;;;;;;;18.16;100.00;99592.81;5015828;28;20053;-51
2023/07/27 03:36:29;;;;;;;0.32;0.20;;;;;;;18.15;100.00;99588.47;5024516;28;20079;-48
2023/07/27 03:38:54;;;;;;;1.05;0.30;;;;;;;18.19;100.00;99593.06;5021008;28;20075;-48
2023/07/27 03:41:19;;;;;;;2.47;0.30;;;;;;;18.27;100.00;99581.03;5021246;28;20087;-49
2023/07/27 03:43:45;;;;;;;0.30;0.30;;;;;;;18.30;100.00;99593.91;5024993;28;20040;-47
2023/07/27 03:46:10;;;;;;;1.50;0.00;;;;;;;18.26;100.00;99582.09;5017999;28;20048;-46
2023/07/27 03:48:36;;;;;;;0.10;0.10;;;;;;;18.39;100.00;99584.28;5019543;28;20048;-52
2023/07/27 03:51:02;;;;;;;0.93;0.35;;;;;;;18.40;100.00;99582.41;5023507;28;20025;-62
2023/07/27 03:53:29;;;;;;;0.63;0.30;;;;;;;18.40;100.00;99577.03;5020435;28;20038;-51
2023/07/27 03:55:54;;;;;;;0.00;0.00;;;;;;;18.37;100.00;99573.00;5017689;28;20061;-54
2023/07/27 03:58:20;;;;;;;2.65;0.60;;;;;;;18.45;100.00;99577.84;5023279;28;20064;-49
2023/07/27 04:00:45;;;;;;;0.77;0.10;;;;;;;18.48;100.00;99569.28;5020218;28;20514;-49
2023/07/27 04:03:10;;;;;;;5.28;0.40;;;;;;;18.48;100.00;99571.97;5021630;28;20036;-54
2023/07/27 04:05:35;;;;;;;2.90;0.35;;;;;;;18.52;100.00;99573.03;5022368;28;20134;-54
2023/07/27 04:08:01;;;;;;;2.63;0.03;;;;;;;18.55;100.00;99571.72;5013224;28;20061;-56
2023/07/27 04:10:29;;;;;;;1.98;0.20;;;;;;;18.51;100.00;99578.69;5022198;28;20095;-53
2023/07/27 04:12:54;;;;;;;0.57;0.20;;;;;;;18.61;100.00;99577.88;5022614;28;20152;-49
2023/07/27 04:15:20;;;;;;;1.85;0.47;;;;;;;18.64;100.00;99586.22;5023093;28;20161;-50
2023/07/27 04:17:45;;;;;;;0.17;0.03;;;;;;;18.61;100.00;99580.56;5018298;28;20084;-48
2023/07/27 04:20:11;;;;;;;0.28;0.00;;;;;;;18.64;100.00;99583.56;5019897;28;20037;-50
2023/07/27 04:22:36;;;;;;;1.10;0.10;;;;;;;18.60;100.00;99592.41;5021815;28;20209;-53
2023/07/27 04:25:01;;;;;;;0.43;0.10;;;;;;;18.67;100.00;99590.28;5020618;28;20112;-49
2023/07/27 04:27:27;;;;;;;2.45;0.65;;;;;;;18.70;100.00;99587.84;5020353;28;20037;-51
2023/07/27 04:29:52;;;;;;;2.20;0.10;;;;;;;18.70;100.00;99590.53;5023915;28;20473;-50
2023/07/27 04:32:18;;;;;;;1.70;0.25;;;;;;;18.71;100.00;99592.13;5018999;28;20569;-50
2023/07/27 04:34:43;;;;;;;0.60;0.22;;;;;;;18.70;100.00;99579.78;5022859;28;20040;-49
2023/07/27 04:37:08;;;;;;;0.40;0.00;;;;;;;18.69;100.00;99580.03;5022114;28;20033;-54
2023/07/27 04:39:34;;;;;;;6.32;1.05;;;;;;;18.69;100.00;99575.50;5019345;28;20120;-52
2023/07/27 04:41:59;;;;;;;1.08;0.10;;;;;;;18.67;100.00;99579.53;5022481;28;20038;-53
2023/07/27 04:44:26;;;;;;;2.78;0.50;;;;;;;18.67;100.00;99580.31;5018725;28;20026;-51
2023/07/27 04:46:52;;;;;;;0.52;0.10;;;;;;;18.72;100.00;99587.59;5022878;28;20040;-51
2023/07/27 04:49:17;;;;;;;0.32;0.17;;;;;;;18.71;100.00;99576.03;5022523;28;20108;-51
2023/07/27 04:51:42;;;;;;;1.13;0.05;;;;;;;18.66;100.00;99573.31;5022306;28;20116;-49
2023/07/27 04:54:08;;;;;;;0.10;0.10;;;;;;;18.68;100.00;99579.25;5016167;28;20033;-51
2023/07/27 04:56:33;;;;;;;2.13;0.30;;;;;;;18.66;100.00;99584.06;5022964;28;20036;-45
2023/07/27 04:58:58;;;;;;;0.40;0.40;;;;;;;18.53;100.00;99585.41;5021384;28;20037;-54
2023/07/27 05:01:24;;;;;;;0.52;0.25;;;;;;;18.51;100.00;99582.19;5022099;28;20315;-52
2023/07/27 05:03:51;;;;;;;1.65;0.30;;;;;;;18.62;100.00;99587.56;5022058;28;20131;-53
2023/07/27 05:06:16;;;;;;;1.45;0.77;;;;;;;18.71;100.00;99585.97;5014720;28;20478;-49
2023/07/27 05:08:41;;;;;;;0.38;0.10;;;;;;;18.62;100.00;99588.38;5022124;28;20032;-55
2023/07/27 05:11:07;;;;;;;0.20;0.00;;;;;;;18.68;100.00;99589.19;5021433;28;20436;-55
2023/07/27 05:13:33;;;;;;;1.17;0.00;;;;;;;18.72;100.00;99590.28;5023072;28;20600;-55
2023/07/27 05:15:58;;;;;;;0.68;0.00;;;;;;;18.73;100.00;99589.19;5017648;28;20040;-50
2023/07/27 05:18:24;;;;;;;0.15;0.10;;;;;;;18.79;100.00;99592.72;5022109;28;20034;-54
2023/07/27 05:20:49;;;;;;;1.45;0.00;;;;;;;18.61;100.00;99594.00;5010168;28;20505;-55
2023/07/27 05:23:15;;;;;;;0.73;0.10;;;;;;;18.58;100.00;99602.59;5020281;28;20076;-48
2023/07/27 05:25:40;;;;;;;0.73;0.30;;;;;;;18.73;100.00;99599.94;5019491;28;20611;-55
2023/07/27 05:28:05;;;;;;;1.92;0.13;;;;;;;18.83;100.00;99597.28;5014609;28;20129;-55
2023/07/27 05:30:32;;;;;;;0.35;0.13;;;;;;;18.78;100.00;99602.66;5020479;28;20041;-50
2023/07/27 05:32:58;;;;;;;0.93;0.22;;;;;;;18.82;100.00;99598.38;5020217;28;20644;-53
2023/07/27 05:35:23;;;;;;;0.85;0.00;;;;;;;18.84;100.00;99598.88;5019237;28;20029;-54
2023/07/27 05:37:48;;;;;;;0.73;0.40;;;;;;;18.85;100.00;99611.25;5025171;28;20037;-54
2023/07/27 05:40:14;;;;;;;0.10;0.00;;;;;;;18.87;100.00;99603.75;5013475;28;20045;-53
2023/07/27 05:42:40;;;;;;;0.17;0.00;;;;;;;18.86;100.00;99604.00;5022566;28;20160;-55
2023/07/27 05:45:06;;;;;;;0.67;0.00;;;;;;;18.90;100.00;99599.72;5017302;28;20276;-52
2023/07/27 05:47:31;;;;;;;0.43;0.00;;;;;;;18.90;100.00;99591.66;5019217;28;20490;-51
2023/07/27 05:49:58;;;;;;;0.20;0.00;;;;;;;18.89;100.00;99603.47;5016896;28;20052;-56
2023/07/27 05:52:23;;;;;;;0.28;0.08;;;;;;;18.87;100.00;99600.25;5016200;28;20033;-56
2023/07/27 05:54:49;;;;;;;0.22;0.00;;;;;;;18.82;100.00;99600.22;5015756;28;20528;-54
2023/07/27 05:57:14;;;;;;;0.35;0.20;;;;;;;18.82;100.00;99595.69;5021257;28;20029;-54
2023/07/27 05:59:39;;;;;;;1.13;0.00;;;;;;;18.87;100.00;99601.06;5018575;28;20470;-48
2023/07/27 06:02:05;;;;;;;2.25;0.00;;;;;;;18.86;100.00;99602.13;5019604;28;20570;-52
2023/07/27 06:04:30;;;;;;;0.52;0.10;;;;;;;18.84;100.00;99603.47;5019107;28;20550;-54
2023/07/27 06:06:57;;;;;;;0.17;0.17;;;;;;;18.83;100.00;99610.72;5022139;28;20044;-48
2023/07/27 06:09:23;;;;;;;0.20;0.00;;;;;;;18.89;100.00;99601.59;5014569;28;20225;-52
2023/07/27 06:11:48;;;;;;;0.22;0.22;;;;;;;18.98;100.00;99603.75;5018268;28;20117;-56
2023/07/27 06:14:14;;;;;;;3.80;1.48;;;;;;;19.05;100.00;99606.97;5020296;28;20040;-54
2023/07/27 06:16:39;;;;;;;0.35;0.00;;;;;;;19.12;100.00;99607.50;5017023;28;20061;-52
2023/07/27 06:19:04;;;;;;;1.55;0.00;;;;;;;19.22;100.00;99607.50;5017960;28;20473;-53
2023/07/27 06:21:30;;;;;;;3.53;0.22;;;;;;;19.20;100.00;99609.66;5021265;28;20033;-54
2023/07/27 06:23:55;;;;;;;1.17;0.00;;;;;;;19.21;100.00;99611.28;5025834;28;20029;-49
2023/07/27 06:26:20;;;;;;;1.92;0.00;;;;;;;19.17;100.00;99611.00;5024774;28;20044;-56
2023/07/27 06:28:46;;;;;;;1.70;0.00;;;;;;;19.18;100.00;99609.16;5021315;28;20026;-56
2023/07/27 06:31:11;;;;;;;0.10;0.00;;;;;;;19.20;100.00;99615.03;5023407;28;20041;-54
2023/07/27 06:33:37;;;;;;;2.30;0.00;;;;;;;19.24;100.00;99610.75;5021981;28;20040;-55
2023/07/27 06:36:02;;;;;;;3.10;0.65;;;;;;;19.29;100.00;99618.81;5022712;28;20811;-56
2023/07/27 06:38:27;;;;;;;0.45;0.00;;;;;;;19.30;100.00;99609.66;5022903;28;20482;-50
2023/07/27 06:40:53;;;;;;;0.00;0.00;;;;;;;19.32;100.00;99614.78;5013028;28;20506;-55
2023/07/27 06:43:18;;;;;;;1.67;0.00;;;;;;;19.25;100.00;99611.53;5023224;28;20615;-55
2023/07/27 06:45:44;;;;;;;4.88;1.38;;;;;;;19.17;100.00;99619.06;5024257;28;20040;-57
2023/07/27 06:48:09;;;;;;;0.10;0.10;;;;;;;19.18;100.00;99617.22;5006240;28;20026;-59
2023/07/27 06:50:34;;;;;;;0.45;0.05;;;;;;;19.09;100.00;99619.59;5023783;28;20034;-55
2023/07/27 06:53:00;;;;;;;0.30;0.00;;;;;;;19.08;100.00;99614.53;5023758;28;20068;-58
2023/07/27 06:55:25;;;;;;;0.30;0.10;;;;;;;19.15;100.00;99615.88;5023892;28;20030;-54
2023/07/27 06:57:54;;;;;;;0.45;0.00;;;;;;;19.12;100.00;99618.25;5023918;28;20030;-52
2023/07/27 07:00:19;;;;;;;0.00;0.00;;;;;;;19.13;100.00;99625.25;5018612;28;20387;-55
2023/07/27 07:02:45;;;;;;;1.67;0.00;;;;;;;19.10;100.00;99620.41;5031486;28;20053;-53
2023/07/27 07:05:11;;;;;;;0.15;0.00;;;;;;;19.11;100.00;99625.53;5021040;28;20041;-52
2023/07/27 07:07:36;;;;;;;0.00;0.00;;;;;;;19.16;100.00;99628.22;5025564;28;20099;-48
2023/07/27 07:10:02;;;;;;;0.00;0.00;;;;;;;19.29;100.00;99626.88;5024817;28;20049;-57
2023/07/27 07:12:27;;;;;;;0.00;0.00;;;;;;;19.36;100.00;99635.47;5023542;28;20040;-53
2023/07/27 07:14:52;;;;;;;0.38;0.00;;;;;;;19.42;100.00;99624.72;5018903;28;20029;-54
2023/07/27 07:17:18;;;;;;;0.43;0.00;;;;;;;19.52;100.00;99622.81;5024968;28;20045;-53
2023/07/27 07:19:44;;;;;;;1.00;0.00;;;;;;;19.56;100.00;99623.88;5025039;28;20115;-57
2023/07/27 07:22:09;;;;;;;2.45;0.10;;;;;;;19.68;100.00;99620.94;5022270;28;20475;-57
2023/07/27 07:24:34;;;;;;;2.28;0.00;;;;;;;19.71;100.00;99620.41;5024673;28;20142;-55
2023/07/27 07:27:00;;;;;;;0.15;0.00;;;;;;;19.74;100.00;99627.91;5022190;28;20546;-57
2023/07/27 07:29:26;;;;;;;0.57;0.00;;;;;;;19.75;100.00;99631.44;5017411;28;20622;-66
2023/07/27 07:31:52;;;;;;;0.17;0.00;;;;;;;19.74;100.00;99633.28;5023709;28;20034;-48
2023/07/27 07:34:17;;;;;;;0.60;0.00;;;;;;;19.74;100.00;99630.59;5017860;28;20147;-54
2023/07/27 07:36:43;;;;;;;0.10;0.00;;;;;;;19.89;100.00;99626.28;5024439;28;20037;-55
2023/07/27 07:39:09;;;;;;;0.80;0.00;;;;;;;19.96;100.00;99621.41;4998755;28;20026;-52
2023/07/27 07:41:34;;;;;;;0.00;0.00;;;;;;;20.04;100.00;99618.16;5021724;28;20347;-51
2023/07/27 07:44:00;;;;;;;2.08;0.00;;;;;;;20.04;100.00;99608.19;5021952;28;20471;-54
2023/07/27 07:46:25;;;;;;;0.00;0.00;;;;;;;20.22;100.00;99605.97;5023523;28;20453;-56
2023/07/27 07:48:50;;;;;;;0.55;0.00;;;;;;;20.40;100.00;99610.75;5017197;28;20036;-57
2023/07/27 07:51:16;;;;;;;1.75;0.25;;;;;;;20.56;100.00;99603.41;5018070;28;20037;-52
2023/07/27 07:53:42;;;;;;;2.83;0.00;;;;;;;20.51;100.00;99589.94;5018972;28;20034;-52
2023/07/27 07:56:15;;;;;;;0.65;0.00;;;;;;;20.52;100.00;99590.75;5022515;28;20052;-53
2023/07/27 07:58:41;;;;;;;0.75;0.00;;;;;;;20.54;100.00;99593.97;5021632;28;20548;-60
2023/07/27 08:01:07;;;;;;;0.00;0.00;;;;;;;20.53;100.00;99592.38;5020375;28;20077;-59
2023/07/27 08:03:32;;;;;;;2.45;0.00;;;;;;;20.46;100.00;99609.63;5021656;28;20556;-56
2023/07/27 08:05:58;;;;;;;0.57;0.00;;;;;;;20.51;100.00;99600.72;5018139;28;20505;-55
2023/07/27 08:08:23;;;;;;;0.00;0.00;;;;;;;20.61;100.00;99594.50;5013152;28;20446;-54
2023/07/27 08:10:49;;;;;;;0.63;0.22;;;;;;;20.58;100.00;99598.56;5021232;28;20065;-61
2023/07/27 08:13:14;;;;;;;0.10;0.00;;;;;;;20.52;100.00;99588.84;5013129;28;20037;-55
2023/07/27 08:15:39;;;;;;;0.88;0.00;;;;;;;20.51;100.00;99600.72;5023606;28;20029;-60
2023/07/27 08:18:05;;;;;;;1.02;0.03;;;;;;;20.53;100.00;99614.72;5022471;28;20045;-60
2023/07/27 08:20:30;;;;;;;0.77;0.00;;;;;;;20.48;100.00;99617.44;5023702;28;20483;-52
2023/07/27 08:22:56;;;;;;;0.10;0.00;;;;;;;20.45;100.00;99612.59;5020596;28;20045;-57
2023/07/27 08:25:24;;;;;;;0.25;0.00;;;;;;;20.41;100.00;99612.34;5024302;28;20029;-55
2023/07/27 08:27:50;;;;;;;0.00;0.00;;;;;;;20.39;100.00;99611.00;5016004;28;20038;-59
2023/07/27 08:30:15;;;;;;;3.00;0.10;;;;;;;20.47;100.00;99605.88;5015342;28;20021;-52
2023/07/27 08:32:41;;;;;;;0.00;0.00;;;;;;;20.45;100.00;99609.91;5021683;28;20045;-56
2023/07/27 08:35:06;;;;;;;0.00;0.00;;;;;;;20.59;100.00;99608.22;5016739;28;20037;-54
2023/07/27 08:37:32;;;;;;;2.53;0.05;;;;;;;20.63;100.00;99603.91;5019840;28;20037;-53
2023/07/27 08:40:01;;;;;;;2.03;0.00;;;;;;;20.78;100.00;99608.41;5023552;28;20068;-60
2023/07/27 08:42:27;;;;;;;0.00;0.00;;;;;;;20.84;100.00;99601.88;5019673;28;20109;-52
2023/07/27 08:44:53;;;;;;;0.35;0.00;;;;;;;20.90;100.00;99603.44;5023067;28;20030;-60
2023/07/27 08:47:19;;;;;;;0.05;0.00;;;;;;;20.93;100.00;99599.38;5019894;28;20041;-60
2023/07/27 08:49:45;;;;;;;0.10;0.10;;;;;;;21.00;100.00;99607.97;5024411;28;20025;-57
2023/07/27 08:52:12;;;;;;;0.10;0.10;;;;;;;21.11;100.00;99603.28;5018122;28;20056;-54
2023/07/27 08:54:37;;;;;;;0.05;0.00;;;;;;;21.23;100.00;99605.63;5016527;28;20438;-53
2023/07/27 08:57:03;;;;;;;0.43;0.10;;;;;;;21.25;100.00;99598.06;5034343;28;20043;-67
2023/07/27 08:59:29;;;;;;;0.95;0.05;;;;;;;21.23;100.00;99594.84;5020645;28;20040;-55
2023/07/27 09:01:54;;;;;;;2.83;0.03;;;;;;;21.24;100.00;99597.25;5018246;28;20522;-59
2023/07/27 09:04:19;;;;;;;0.25;0.00;;;;;;;21.28;100.00;99598.31;5016122;28;20041;-56
2023/07/27 09:06:49;;;;;;;0.40;0.00;;;;;;;21.30;100.00;99589.94;5021479;28;20087;-57
2023/07/27 09:09:25;;;;;;;0.00;0.00;;;;;;;21.39;100.00;99599.03;5023063;28;20037;-51
2023/07/27 09:11:54;;;;;;;0.05;0.00;;;;;;;21.47;100.00;99594.94;5020016;28;20037;-60
2023/07/27 09:14:20;;;;;;;4.13;0.00;;;;;;;21.51;100.00;99591.38;5020296;28;20029;-65
2023/07/27 09:16:47;;;;;;;0.25;0.10;;;;;;;21.65;100.00;99590.69;5024729;28;20052;-64
2023/07/27 09:19:12;;;;;;;2.47;0.00;;;;;;;21.88;100.00;99589.91;5022928;28;20037;-62
2023/07/27 09:21:45;;;;;;;0.17;0.00;;;;;;;22.00;100.00;99587.59;5021456;28;20060;-62
2023/07/27 09:24:14;;;;;;;0.22;0.00;;;;;;;21.95;100.00;99578.78;5021607;28;20521;-60
2023/07/27 09:26:47;;;;;;;0.45;0.13;;;;;;;21.87;100.00;99588.31;5020518;28;20041;-57
2023/07/27 09:29:13;;;;;;;0.10;0.10;;;;;;;21.61;100.00;99587.78;5020075;28;20459;-50
2023/07/27 09:31:58;;;;;;;0.30;0.00;;;;;;;21.75;100.00;99596.78;5023738;28;20509;-52
2023/07/27 09:34:28;;;;;;;0.00;0.00;;;;;;;21.92;100.00;99595.53;5012004;28;20037;-59
2023/07/27 09:36:54;;;;;;;0.35;0.00;;;;;;;22.14;100.00;99585.00;5013623;28;20055;-52
2023/07/27 09:39:19;;;;;;;0.00;0.00;;;;;;;22.22;100.00;99583.56;5020982;28;20029;-58
2023/07/27 09:41:46;;;;;;;1.75;0.00;;;;;;;22.31;100.00;99581.06;5021652;28;20067;-62
2023/07/27 09:44:16;;;;;;;0.00;0.00;;;;;;;22.26;100.00;99581.13;5013442;28;20065;-54
2023/07/27 09:46:43;;;;;;;0.00;0.00;;;;;;;22.20;100.00;99574.97;5022606;28;20037;-60
2023/07/27 09:49:08;;;;;;;0.43;0.00;;;;;;;22.20;100.00;99585.75;5021876;28;20140;-63
2023/07/27 09:51:36;;;;;;;0.10;0.00;;;;;;;22.19;100.00;99582.25;5019465;28;20561;-57
2023/07/27 09:54:03;;;;;;;0.00;0.00;;;;;;;22.24;100.00;99586.78;5020803;28;20172;-56
2023/07/27 09:56:29;;;;;;;0.00;0.00;;;;;;;22.09;100.00;99586.97;5018925;28;20021;-56
2023/07/27 09:58:54;;;;;;;0.20;0.00;;;;;;;22.02;100.00;99589.19;5025315;28;20033;-58
2023/07/27 10:01:20;;;;;;;1.85;0.00;;;;;;;21.93;100.00;99592.53;5020760;28;20069;-58
2023/07/27 10:03:46;;;;;;;0.00;0.00;;;;;;;21.86;100.00;99600.16;5015910;28;20026;-59
2023/07/27 10:06:15;;;;;;;0.10;0.00;;;;;;;21.94;100.00;99598.72;5020540;28;20029;-55
2023/07/27 10:08:42;;;;;;;0.20;0.10;;;;;;;22.02;100.00;99597.28;5026368;28;20091;-63
2023/07/27 10:11:08;;;;;;;1.45;0.00;;;;;;;22.30;100.00;99592.94;5024233;28;20445;-59
2023/07/27 10:13:51;;;;;;;0.57;0.00;;;;;;;22.46;100.00;99593.53;5024220;28;20044;-61
2023/07/27 10:16:17;;;;;;;0.57;0.00;;;;;;;22.52;100.00;99589.69;5013516;28;20053;-63
2023/07/27 10:18:46;;;;;;;0.43;0.00;;;;;;;22.48;100.00;99585.94;5021329;28;20033;-61
2023/07/27 10:21:23;;;;;;;1.95;0.10;;;;;;;22.59;100.00;99595.53;5019481;28;20151;-59
2023/07/27 10:23:56;;;;;;;0.30;0.00;;;;;;;22.44;100.00;99585.72;5023774;28;20080;-53
2023/07/27 10:26:51;;;;;;;0.00;0.00;;;;;;;22.52;100.00;99603.97;5023039;28;20057;-63
2023/07/27 10:29:26;;;;;;;0.15;0.00;;;;;;;22.67;100.00;99597.56;5022690;28;20140;-65
2023/07/27 10:32:03;;;;;;;0.00;0.00;;;;;;;23.05;100.00;99584.84;5016645;28;20030;-65
2023/07/27 10:34:30;;;;;;;0.25;0.00;;;;;;;23.34;100.00;99578.41;5022533;28;20486;-64
2023/07/27 10:37:00;;;;;;;0.00;0.00;;;;;;;23.36;100.00;99568.06;5022487;28;20045;-62
2023/07/27 10:39:34;;;;;;;0.15;0.00;;;;;;;23.37;100.00;99579.72;5024278;28;20557;-60
2023/07/27 10:42:08;;;;;;;0.40;0.00;;;;;;;23.18;100.00;99574.34;5020238;28;20048;-62
2023/07/27 10:44:57;;;;;;;0.00;0.00;;;;;;;22.95;100.00;99582.28;5020557;28;20036;-61
2023/07/27 10:47:23;;;;;;;0.00;0.00;;;;;;;22.68;100.00;99582.94;5019399;28;20037;-63
2023/07/27 10:49:59;;;;;;;0.00;0.00;;;;;;;22.63;100.00;99585.72;5020790;28;20049;-53
2023/07/27 10:52:32;;;;;;;0.30;0.00;;;;;;;22.48;100.00;99588.63;5022006;28;20029;-60
2023/07/27 10:54:59;;;;;;;0.20;0.10;;;;;;;22.64;100.00;99590.84;5017446;28;20033;-57
2023/07/27 10:57:29;;;;;;;0.15;0.03;;;;;;;22.90;100.00;99592.34;5020110;28;20068;-61
2023/07/27 10:59:55;;;;;;;0.47;0.00;;;;;;;23.12;100.00;99580.94;5012845;28;20052;-57
2023/07/27 11:02:29;;;;;;;0.38;0.00;;;;;;;23.28;100.00;99572.28;5024753;28;20528;-61
2023/07/27 11:04:56;;;;;;;0.05;0.00;;;;;;;23.43;100.00;99579.31;5020429;28;20091;-51
2023/07/27 11:07:27;;;;;;;0.20;0.00;;;;;;;23.33;100.00;99571.38;5019816;28;20113;-55
2023/07/27 11:09:52;;;;;;;0.10;0.00;;;;;;;23.28;100.00;99566.06;5022216;28;20632;-60
2023/07/27 11:12:18;;;;;;;2.55;0.30;;;;;;;23.24;100.00;99568.56;5023163;28;20067;-62
2023/07/27 11:14:43;;;;;;;0.68;0.00;;;;;;;23.28;100.00;99561.47;5022617;28;20391;-54
2023/07/27 11:17:08;;;;;;;0.00;0.00;;;;;;;23.32;100.00;99555.47;5025332;28;20383;-57
2023/07/27 11:19:34;;;;;;;0.57;0.05;;;;;;;23.49;100.00;99561.06;5022289;28;20098;-61
2023/07/27 11:22:00;;;;;;;0.05;0.00;;;;;;;23.81;100.00;99552.09;5022366;28;20090;-58
2023/07/27 11:24:26;;;;;;;0.77;0.00;;;;;;;24.17;100.00;99544.03;5022462;28;20029;-60